createdAt,value
2023-02-13T00:00:20.414Z,0.00
2023-02-13T00:01:20.337Z,0.00
2023-02-13T00:02:20.368Z,0.00
2023-02-13T00:03:20.387Z,0.00
2023-02-13T00:04:20.300Z,0.00
2023-02-13T00:05:20.301Z,0.00
2023-02-13T00:06:21.324Z,0.00
2023-02-13T00:07:21.308Z,0.00
2023-02-13T00:08:20.308Z,0.00
2023-02-13T00:09:20.269Z,0.00
2023-02-13T00:10:20.238Z,0.00
2023-02-13T00:11:21.268Z,0.00
2023-02-13T00:12:20.235Z,0.00
2023-02-13T00:13:21.260Z,0.00
2023-02-13T00:14:20.194Z,0.00
2023-02-13T00:15:21.198Z,0.00
2023-02-13T00:16:21.198Z,0.00
2023-02-13T00:17:21.218Z,0.00
2023-02-13T00:18:20.169Z,0.00
2023-02-13T00:19:20.190Z,0.00
2023-02-13T00:20:21.144Z,0.00
2023-02-13T00:21:21.129Z,0.00
2023-02-13T00:22:21.115Z,0.00
2023-02-13T00:23:20.142Z,0.00
2023-02-13T00:24:20.119Z,0.00
2023-02-13T00:25:20.074Z,0.00
2023-02-13T00:26:21.107Z,0.00
2023-02-13T00:27:20.074Z,0.00
2023-02-13T00:28:20.172Z,0.00
2023-02-13T00:29:20.078Z,0.00
2023-02-13T00:30:20.018Z,0.00
2023-02-13T00:31:21.185Z,0.00
2023-02-13T00:32:20.128Z,0.00
2023-02-13T00:33:19.978Z,0.00
2023-02-13T00:34:20.007Z,0.00
2023-02-13T00:35:19.970Z,0.00
2023-02-13T00:36:20.974Z,0.00
2023-02-13T00:37:19.928Z,0.00
2023-02-13T00:38:20.954Z,0.00
2023-02-13T00:39:19.923Z,0.00
2023-02-13T00:40:19.961Z,0.00
2023-02-13T00:41:19.923Z,0.00
2023-02-13T00:42:19.904Z,0.00
2023-02-13T00:43:20.479Z,0.00
2023-02-13T00:44:19.956Z,0.00
2023-02-13T00:45:19.867Z,0.00
2023-02-13T00:46:19.948Z,0.00
2023-02-13T00:47:19.817Z,0.00
2023-02-13T00:48:19.926Z,0.00
2023-02-13T00:49:19.880Z,0.00
2023-02-13T00:50:19.825Z,0.00
2023-02-13T00:51:19.792Z,0.00
2023-02-13T00:52:19.788Z,0.00
2023-02-13T00:53:20.766Z,0.00
2023-02-13T00:54:20.776Z,0.00
2023-02-13T00:55:19.730Z,0.00
2023-02-13T00:56:20.762Z,0.00
2023-02-13T00:57:20.731Z,0.00
2023-02-13T00:58:19.755Z,0.00
2023-02-13T00:59:19.686Z,0.00
2023-02-13T01:00:19.726Z,0.00
2023-02-13T01:01:19.748Z,0.00
2023-02-13T01:02:19.693Z,0.00
2023-02-13T01:03:19.735Z,0.00
2023-02-13T01:04:19.661Z,0.00
2023-02-13T01:05:19.634Z,0.00
2023-02-13T01:06:20.621Z,0.00
2023-02-13T01:07:19.646Z,0.00
2023-02-13T01:08:19.592Z,0.00
2023-02-13T01:09:19.619Z,0.00
2023-02-13T01:10:19.566Z,0.00
2023-02-13T01:11:19.574Z,0.00
2023-02-13T01:12:20.576Z,0.00
2023-02-13T01:13:20.548Z,0.00
2023-02-13T01:14:19.528Z,0.00
2023-02-13T01:15:19.557Z,0.00
2023-02-13T01:16:20.555Z,0.00
2023-02-13T01:17:19.572Z,0.00
2023-02-13T01:18:19.496Z,0.00
2023-02-13T01:19:19.494Z,0.00
2023-02-13T01:20:19.471Z,0.00
2023-02-13T01:21:19.489Z,0.00
2023-02-13T01:22:19.454Z,0.00
2023-02-13T01:23:19.467Z,0.00
2023-02-13T01:24:20.466Z,0.00
2023-02-13T01:25:19.401Z,0.00
2023-02-13T01:26:19.427Z,0.00
2023-02-13T01:27:19.435Z,0.00
2023-02-13T01:28:19.432Z,0.00
2023-02-13T01:29:19.414Z,0.00
2023-02-13T01:30:20.347Z,0.00
2023-02-13T01:31:20.509Z,0.00
2023-02-13T01:32:19.450Z,0.00
2023-02-13T01:33:20.396Z,0.00
2023-02-13T01:34:19.361Z,0.00
2023-02-13T01:35:19.319Z,0.00
2023-02-13T01:36:19.302Z,0.00
2023-02-13T01:37:19.274Z,0.00
2023-02-13T01:38:20.257Z,0.00
2023-02-13T01:39:19.288Z,0.00
2023-02-13T01:40:19.232Z,0.00
2023-02-13T01:41:19.288Z,0.00
2023-02-13T01:42:19.229Z,0.00
2023-02-13T01:43:19.214Z,0.00
2023-02-13T01:44:19.240Z,0.00
2023-02-13T01:45:19.221Z,0.00
2023-02-13T01:46:19.186Z,0.00
2023-02-13T01:47:19.202Z,0.00
2023-02-13T01:48:19.178Z,0.00
2023-02-13T01:49:19.193Z,0.00
2023-02-13T01:50:19.171Z,0.00
2023-02-13T01:51:19.193Z,0.00
2023-02-13T01:52:20.122Z,0.00
2023-02-13T01:53:19.113Z,0.00
2023-02-13T01:54:19.079Z,0.00
2023-02-13T01:55:19.075Z,0.00
2023-02-13T01:56:19.081Z,0.00
2023-02-13T01:57:19.092Z,0.00
2023-02-13T01:58:20.042Z,0.00
2023-02-13T01:59:19.081Z,0.00
2023-02-13T02:00:19.026Z,0.00
2023-02-13T02:01:19.665Z,0.00
2023-02-13T02:02:20.193Z,0.00
2023-02-13T02:03:18.993Z,0.00
2023-02-13T02:04:18.977Z,0.00
2023-02-13T02:05:18.994Z,0.00
2023-02-13T02:06:18.946Z,0.00
2023-02-13T02:07:18.953Z,0.00
2023-02-13T02:08:18.963Z,0.00
2023-02-13T02:09:19.992Z,0.00
2023-02-13T02:10:18.902Z,0.00
2023-02-13T02:11:19.927Z,0.00
2023-02-13T02:12:18.891Z,0.00
2023-02-13T02:13:18.923Z,0.00
2023-02-13T02:14:19.870Z,0.00
2023-02-13T02:15:19.918Z,0.00
2023-02-13T02:16:18.926Z,0.00
2023-02-13T02:17:18.920Z,0.00
2023-02-13T02:18:19.661Z,0.00
2023-02-13T02:19:18.830Z,0.00
2023-02-13T02:20:18.808Z,0.00
2023-02-13T02:21:18.875Z,0.00
2023-02-13T02:22:18.794Z,0.00
2023-02-13T02:23:18.821Z,0.00
2023-02-13T02:24:18.762Z,0.00
2023-02-13T02:25:18.752Z,0.00
2023-02-13T02:26:18.770Z,0.00
2023-02-13T02:27:19.729Z,0.00
2023-02-13T02:28:18.744Z,0.00
2023-02-13T02:29:18.754Z,0.00
2023-02-13T02:30:19.781Z,0.00
2023-02-13T02:31:18.729Z,0.00
2023-02-13T02:32:18.660Z,0.00
2023-02-13T02:33:18.662Z,0.00
2023-02-13T02:34:18.664Z,0.00
2023-02-13T02:35:18.660Z,0.00
2023-02-13T02:36:19.675Z,0.00
2023-02-13T02:37:18.629Z,0.00
2023-02-13T02:38:18.600Z,0.00
2023-02-13T02:39:18.627Z,0.00
2023-02-13T02:40:19.596Z,0.00
2023-02-13T02:41:18.594Z,0.00
2023-02-13T02:42:18.583Z,0.00
2023-02-13T02:43:18.543Z,0.00
2023-02-13T02:44:19.598Z,0.00
2023-02-13T02:45:18.561Z,0.00
2023-02-13T02:46:18.584Z,0.00
2023-02-13T02:47:19.534Z,0.00
2023-02-13T02:48:19.495Z,0.00
2023-02-13T02:49:18.486Z,0.00
2023-02-13T02:50:18.526Z,0.00
2023-02-13T02:51:18.451Z,0.00
2023-02-13T02:52:18.457Z,0.00
2023-02-13T02:53:18.606Z,0.00
2023-02-13T02:54:18.440Z,0.00
2023-02-13T02:55:19.416Z,0.00
2023-02-13T02:56:18.395Z,0.00
2023-02-13T02:57:18.388Z,0.00
2023-02-13T02:58:18.387Z,0.00
2023-02-13T02:59:18.453Z,0.00
2023-02-13T03:00:18.372Z,0.00
2023-02-13T03:01:18.410Z,0.00
2023-02-13T03:02:18.333Z,0.00
2023-02-13T03:03:18.431Z,0.00
2023-02-13T03:04:19.467Z,0.00
2023-02-13T03:05:19.355Z,0.00
2023-02-13T03:06:19.137Z,0.00
2023-02-13T03:07:18.271Z,0.00
2023-02-13T03:08:18.334Z,0.00
2023-02-13T03:09:18.299Z,0.00
2023-02-13T03:10:18.256Z,0.00
2023-02-13T03:11:18.277Z,0.00
2023-02-13T03:12:18.225Z,0.00
2023-02-13T03:13:18.214Z,0.00
2023-02-13T03:14:19.294Z,0.00
2023-02-13T03:15:18.206Z,0.00
2023-02-13T03:16:18.284Z,0.00
2023-02-13T03:17:18.168Z,0.00
2023-02-13T03:18:18.159Z,0.00
2023-02-13T03:19:18.189Z,0.00
2023-02-13T03:20:18.173Z,0.00
2023-02-13T03:21:18.114Z,0.00
2023-02-13T03:22:18.136Z,0.00
2023-02-13T03:23:18.125Z,0.00
2023-02-13T03:24:18.149Z,0.00
2023-02-13T03:25:18.105Z,0.00
2023-02-13T03:26:18.249Z,0.00
2023-02-13T03:27:18.066Z,0.00
2023-02-13T03:28:18.073Z,0.00
2023-02-13T03:29:18.050Z,0.00
2023-02-13T03:30:18.016Z,0.00
2023-02-13T03:31:19.082Z,0.00
2023-02-13T03:32:18.018Z,0.00
2023-02-13T03:33:17.984Z,0.00
2023-02-13T03:34:17.989Z,0.00
2023-02-13T03:35:18.974Z,0.00
2023-02-13T03:36:17.958Z,0.00
2023-02-13T03:37:18.981Z,0.00
2023-02-13T03:38:17.968Z,0.00
2023-02-13T03:39:17.980Z,0.00
2023-02-13T03:40:17.917Z,0.00
2023-02-13T03:41:17.918Z,0.00
2023-02-13T03:42:17.885Z,0.00
2023-02-13T03:43:17.874Z,0.00
2023-02-13T03:44:17.892Z,0.00
2023-02-13T03:45:17.882Z,0.00
2023-02-13T03:46:17.874Z,0.00
2023-02-13T03:47:17.825Z,0.00
2023-02-13T03:48:18.820Z,0.00
2023-02-13T03:49:18.849Z,0.00
2023-02-13T03:50:17.817Z,0.00
2023-02-13T03:51:17.830Z,0.00
2023-02-13T03:52:17.811Z,0.00
2023-02-13T03:53:17.759Z,0.00
2023-02-13T03:54:17.764Z,0.00
2023-02-13T03:55:17.766Z,0.00
2023-02-13T03:56:18.733Z,0.00
2023-02-13T03:57:17.794Z,0.00
2023-02-13T03:58:17.729Z,0.00
2023-02-13T03:59:17.732Z,0.00
2023-02-13T04:00:17.687Z,0.00
2023-02-13T04:01:18.776Z,0.00
2023-02-13T04:02:17.725Z,0.00
2023-02-13T04:03:17.686Z,0.00
2023-02-13T04:04:17.661Z,0.00
2023-02-13T04:05:17.665Z,0.00
2023-02-13T04:06:18.615Z,0.00
2023-02-13T04:07:17.631Z,0.00
2023-02-13T04:08:17.612Z,0.00
2023-02-13T04:09:18.640Z,0.00
2023-02-13T04:10:17.606Z,0.00
2023-02-13T04:11:17.621Z,0.00
2023-02-13T04:12:18.550Z,0.00
2023-02-13T04:13:17.578Z,0.00
2023-02-13T04:14:17.536Z,0.00
2023-02-13T04:15:17.572Z,0.00
2023-02-13T04:16:18.628Z,0.00
2023-02-13T04:17:18.512Z,0.00
2023-02-13T04:18:17.490Z,0.00
2023-02-13T04:19:17.486Z,0.00
2023-02-13T04:20:18.501Z,0.00
2023-02-13T04:21:17.499Z,0.00
2023-02-13T04:22:17.517Z,0.00
2023-02-13T04:23:18.438Z,0.00
2023-02-13T04:24:17.438Z,0.00
2023-02-13T04:25:18.434Z,0.00
2023-02-13T04:26:17.415Z,0.00
2023-02-13T04:27:18.444Z,0.00
2023-02-13T04:28:17.464Z,0.00
2023-02-13T04:29:17.407Z,0.00
2023-02-13T04:30:17.366Z,0.00
2023-02-13T04:31:17.474Z,0.00
2023-02-13T04:32:17.343Z,0.00
2023-02-13T04:33:17.356Z,0.00
2023-02-13T04:34:17.365Z,0.00
2023-02-13T04:35:17.363Z,0.00
2023-02-13T04:36:17.307Z,0.00
2023-02-13T04:37:17.295Z,0.00
2023-02-13T04:38:18.306Z,0.00
2023-02-13T04:39:18.281Z,0.00
2023-02-13T04:40:18.275Z,0.00
2023-02-13T04:41:17.297Z,0.00
2023-02-13T04:42:17.231Z,0.00
2023-02-13T04:43:17.258Z,0.00
2023-02-13T04:44:18.243Z,0.00
2023-02-13T04:45:17.222Z,0.00
2023-02-13T04:46:17.263Z,0.00
2023-02-13T04:47:18.067Z,0.00
2023-02-13T04:48:18.174Z,0.00
2023-02-13T04:49:18.181Z,0.00
2023-02-13T04:50:17.179Z,0.00
2023-02-13T04:51:17.179Z,0.00
2023-02-13T04:52:17.142Z,0.00
2023-02-13T04:53:17.122Z,0.00
2023-02-13T04:54:17.110Z,0.00
2023-02-13T04:55:17.151Z,0.00
2023-02-13T04:56:18.952Z,0.00
2023-02-13T04:57:17.106Z,0.00
2023-02-13T04:58:17.109Z,0.00
2023-02-13T04:59:17.058Z,0.00
2023-02-13T05:00:17.060Z,0.00
2023-02-13T05:01:17.130Z,0.00
2023-02-13T05:02:17.040Z,0.00
2023-02-13T05:03:17.012Z,0.00
2023-02-13T05:04:17.057Z,0.00
2023-02-13T05:05:16.985Z,0.00
2023-02-13T05:06:16.993Z,0.00
2023-02-13T05:07:16.971Z,0.00
2023-02-13T05:08:16.963Z,0.00
2023-02-13T05:09:16.934Z,0.00
2023-02-13T05:10:17.962Z,0.00
2023-02-13T05:11:16.958Z,0.00
2023-02-13T05:12:16.943Z,0.00
2023-02-13T05:13:16.903Z,0.00
2023-02-13T05:14:16.904Z,0.00
2023-02-13T05:15:16.905Z,0.00
2023-02-13T05:16:16.939Z,0.00
2023-02-13T05:17:17.605Z,0.00
2023-02-13T05:18:16.870Z,0.00
2023-02-13T05:19:16.844Z,0.00
2023-02-13T05:20:16.831Z,0.00
2023-02-13T05:21:16.859Z,0.00
2023-02-13T05:22:16.846Z,0.00
2023-02-13T05:23:16.801Z,0.00
2023-02-13T05:24:20.187Z,0.00
2023-02-13T05:25:16.776Z,0.00
2023-02-13T05:26:16.779Z,0.00
2023-02-13T05:27:16.787Z,0.00
2023-02-13T05:28:16.784Z,0.00
2023-02-13T05:29:17.719Z,0.00
2023-02-13T05:30:16.738Z,0.00
2023-02-13T05:31:17.826Z,0.00
2023-02-13T05:32:16.769Z,0.00
2023-02-13T05:33:17.730Z,0.00
2023-02-13T05:34:16.722Z,0.00
2023-02-13T05:35:17.664Z,0.00
2023-02-13T05:36:16.643Z,0.00
2023-02-13T05:37:16.644Z,0.00
2023-02-13T05:38:16.766Z,0.00
2023-02-13T05:39:16.619Z,0.00
2023-02-13T05:40:16.641Z,0.00
2023-02-13T05:41:16.625Z,0.00
2023-02-13T05:42:16.593Z,0.00
2023-02-13T05:43:16.588Z,0.00
2023-02-13T05:44:17.628Z,0.00
2023-02-13T05:45:16.570Z,0.00
2023-02-13T05:46:16.697Z,0.00
2023-02-13T05:47:16.536Z,0.00
2023-02-13T05:48:16.525Z,0.00
2023-02-13T05:49:16.548Z,0.00
2023-02-13T05:50:16.541Z,0.00
2023-02-13T05:51:16.497Z,0.00
2023-02-13T05:52:16.511Z,0.00
2023-02-13T05:53:16.460Z,0.00
2023-02-13T05:54:17.483Z,0.00
2023-02-13T05:55:16.464Z,0.00
2023-02-13T05:56:16.439Z,0.00
2023-02-13T05:57:16.412Z,0.00
2023-02-13T05:58:16.434Z,0.00
2023-02-13T05:59:16.388Z,0.00
2023-02-13T06:00:16.435Z,0.00
2023-02-13T06:01:16.415Z,0.00
2023-02-13T06:02:16.425Z,0.00
2023-02-13T06:03:16.355Z,0.00
2023-02-13T06:04:16.452Z,0.00
2023-02-13T06:05:16.357Z,0.00
2023-02-13T06:06:16.331Z,0.00
2023-02-13T06:07:16.331Z,0.00
2023-02-13T06:08:17.344Z,0.00
2023-02-13T06:09:16.278Z,4.00
2023-02-13T06:10:16.301Z,0.00
2023-02-13T06:11:16.269Z,0.00
2023-02-13T06:12:16.256Z,0.00
2023-02-13T06:13:16.233Z,4.00
2023-02-13T06:14:16.269Z,4.00
2023-02-13T06:15:16.224Z,0.00
2023-02-13T06:16:17.302Z,4.00
2023-02-13T06:17:16.198Z,4.00
2023-02-13T06:18:16.219Z,4.00
2023-02-13T06:19:17.178Z,4.00
2023-02-13T06:20:17.196Z,4.00
2023-02-13T06:21:16.194Z,8.00
2023-02-13T06:22:16.177Z,4.00
2023-02-13T06:23:17.149Z,8.00
2023-02-13T06:24:16.135Z,8.00
2023-02-13T06:25:16.115Z,8.00
2023-02-13T06:26:16.106Z,8.00
2023-02-13T06:27:16.129Z,12.00
2023-02-13T06:28:16.150Z,12.00
2023-02-13T06:29:16.084Z,16.00
2023-02-13T06:30:16.075Z,16.00
2023-02-13T06:31:16.220Z,12.00
2023-02-13T06:32:16.041Z,16.00
2023-02-13T06:33:16.057Z,20.00
2023-02-13T06:34:16.060Z,16.00
2023-02-13T06:35:16.028Z,20.00
2023-02-13T06:36:16.998Z,20.00
2023-02-13T06:37:16.005Z,20.00
2023-02-13T06:38:15.983Z,24.00
2023-02-13T06:39:16.042Z,24.00
2023-02-13T06:40:15.939Z,24.00
2023-02-13T06:41:15.949Z,28.00
2023-02-13T06:42:15.943Z,32.00
2023-02-13T06:43:15.925Z,36.00
2023-02-13T06:44:15.904Z,36.00
2023-02-13T06:45:16.958Z,40.00
2023-02-13T06:46:15.939Z,44.00
2023-02-13T06:47:15.888Z,44.00
2023-02-13T06:48:16.865Z,44.00
2023-02-13T06:49:15.852Z,44.00
2023-02-13T06:50:16.861Z,48.00
2023-02-13T06:51:15.861Z,48.00
2023-02-13T06:52:15.846Z,48.00
2023-02-13T06:53:15.845Z,48.00
2023-02-13T06:54:15.789Z,48.00
2023-02-13T06:55:15.775Z,48.00
2023-02-13T06:56:15.762Z,48.00
2023-02-13T06:57:15.856Z,48.00
2023-02-13T06:58:15.759Z,48.00
2023-02-13T06:59:16.746Z,52.00
2023-02-13T07:00:15.722Z,56.00
2023-02-13T07:01:15.882Z,52.00
2023-02-13T07:02:15.709Z,52.00
2023-02-13T07:03:16.735Z,56.00
2023-02-13T07:04:15.688Z,56.00
2023-02-13T07:05:15.705Z,56.00
2023-02-13T07:06:15.702Z,60.00
2023-02-13T07:07:15.655Z,60.00
2023-02-13T07:08:15.656Z,60.00
2023-02-13T07:09:15.759Z,60.00
2023-02-13T07:10:15.626Z,64.00
2023-02-13T07:11:15.595Z,64.00
2023-02-13T07:12:15.642Z,68.00
2023-02-13T07:13:15.612Z,68.00
2023-02-13T07:14:15.566Z,72.00
2023-02-13T07:15:15.600Z,72.00
2023-02-13T07:16:16.566Z,80.00
2023-02-13T07:17:15.533Z,80.00
2023-02-13T07:18:15.576Z,84.00
2023-02-13T07:19:15.511Z,92.00
2023-02-13T07:20:15.519Z,96.00
2023-02-13T07:21:15.487Z,104.00
2023-02-13T07:22:15.519Z,100.00
2023-02-13T07:23:16.515Z,100.00
2023-02-13T07:24:16.472Z,104.00
2023-02-13T07:25:16.559Z,112.00
2023-02-13T07:26:15.452Z,112.00
2023-02-13T07:27:15.425Z,112.00
2023-02-13T07:28:15.534Z,116.00
2023-02-13T07:29:15.450Z,124.00
2023-02-13T07:30:15.438Z,124.00
2023-02-13T07:31:15.534Z,128.00
2023-02-13T07:32:15.384Z,136.00
2023-02-13T07:33:15.364Z,140.00
2023-02-13T07:34:15.391Z,140.00
2023-02-13T07:35:15.343Z,148.00
2023-02-13T07:36:15.321Z,152.00
2023-02-13T07:37:15.364Z,156.00
2023-02-13T07:38:15.300Z,160.00
2023-02-13T07:39:16.307Z,160.00
2023-02-13T07:40:15.325Z,156.00
2023-02-13T07:41:15.338Z,152.00
2023-02-13T07:42:15.272Z,144.00
2023-02-13T07:43:15.258Z,144.00
2023-02-13T07:44:15.262Z,144.00
2023-02-13T07:45:15.249Z,144.00
2023-02-13T07:46:15.214Z,144.00
2023-02-13T07:47:15.299Z,144.00
2023-02-13T07:48:16.207Z,152.00
2023-02-13T07:49:15.206Z,160.00
2023-02-13T07:50:15.176Z,164.00
2023-02-13T07:51:15.184Z,168.00
2023-02-13T07:52:15.182Z,164.00
2023-02-13T07:53:16.224Z,168.00
2023-02-13T07:54:16.143Z,180.00
2023-02-13T07:55:15.164Z,192.00
2023-02-13T07:56:15.130Z,200.00
2023-02-13T07:57:15.213Z,204.00
2023-02-13T07:58:15.130Z,208.00
2023-02-13T07:59:15.076Z,208.00
2023-02-13T08:00:15.068Z,200.00
2023-02-13T08:01:16.176Z,196.00
2023-02-13T08:02:16.149Z,192.00
2023-02-13T08:03:15.043Z,180.00
2023-02-13T08:04:15.129Z,168.00
2023-02-13T08:05:15.076Z,164.00
2023-02-13T08:06:15.014Z,168.00
2023-02-13T08:07:15.004Z,164.00
2023-02-13T08:08:15.013Z,172.00
2023-02-13T08:09:15.001Z,164.00
2023-02-13T08:10:14.968Z,156.00
2023-02-13T08:11:15.006Z,152.00
2023-02-13T08:12:14.931Z,156.00
2023-02-13T08:13:14.947Z,164.00
2023-02-13T08:14:14.961Z,172.00
2023-02-13T08:15:14.905Z,184.00
2023-02-13T08:16:14.893Z,196.00
2023-02-13T08:17:14.913Z,200.00
2023-02-13T08:18:14.881Z,192.00
2023-02-13T08:19:14.865Z,188.00
2023-02-13T08:20:14.905Z,204.00
2023-02-13T08:21:14.828Z,216.00
2023-02-13T08:22:14.886Z,220.00
2023-02-13T08:23:15.018Z,220.00
2023-02-13T08:24:14.822Z,216.00
2023-02-13T08:25:14.794Z,220.00
2023-02-13T08:26:14.832Z,220.00
2023-02-13T08:27:14.769Z,224.00
2023-02-13T08:28:14.779Z,236.00
2023-02-13T08:29:14.798Z,248.00
2023-02-13T08:30:14.729Z,264.00
2023-02-13T08:31:15.802Z,264.00
2023-02-13T08:32:14.851Z,256.00
2023-02-13T08:33:15.732Z,240.00
2023-02-13T08:34:15.684Z,228.00
2023-02-13T08:35:14.715Z,228.00
2023-02-13T08:36:14.700Z,232.00
2023-02-13T08:37:14.667Z,240.00
2023-02-13T08:38:14.690Z,256.00
2023-02-13T08:39:15.636Z,264.00
2023-02-13T08:40:14.829Z,252.00
2023-02-13T08:41:14.646Z,236.00
2023-02-13T08:42:16.346Z,228.00
2023-02-13T08:43:14.603Z,220.00
2023-02-13T08:44:15.577Z,212.00
2023-02-13T08:45:15.631Z,200.00
2023-02-13T08:46:14.671Z,192.00
2023-02-13T08:47:14.546Z,184.00
2023-02-13T08:48:14.535Z,188.00
2023-02-13T08:49:15.515Z,200.00
2023-02-13T08:50:14.530Z,216.00
2023-02-13T08:51:15.539Z,232.00
2023-02-13T08:52:15.534Z,228.00
2023-02-13T08:53:14.493Z,216.00
2023-02-13T08:54:14.496Z,212.00
2023-02-13T08:55:14.468Z,212.00
2023-02-13T08:56:15.465Z,216.00
2023-02-13T08:57:14.548Z,232.00
2023-02-13T08:58:14.592Z,260.00
2023-02-13T08:59:14.436Z,280.00
2023-02-13T09:00:14.415Z,292.00
2023-02-13T09:01:14.490Z,284.00
2023-02-13T09:02:14.423Z,280.00
2023-02-13T09:03:14.499Z,276.00
2023-02-13T09:04:14.427Z,276.00
2023-02-13T09:05:14.347Z,260.00
2023-02-13T09:06:15.333Z,240.00
2023-02-13T09:07:15.316Z,228.00
2023-02-13T09:08:16.650Z,228.00
2023-02-13T09:09:14.333Z,220.00
2023-02-13T09:10:14.334Z,208.00
2023-02-13T09:11:14.274Z,204.00
2023-02-13T09:12:14.287Z,196.00
2023-02-13T09:13:14.286Z,196.00
2023-02-13T09:14:14.260Z,192.00
2023-02-13T09:15:14.244Z,192.00
2023-02-13T09:16:14.248Z,188.00
2023-02-13T09:17:14.290Z,188.00
2023-02-13T09:18:14.216Z,188.00
2023-02-13T09:19:14.193Z,192.00
2023-02-13T09:20:14.219Z,200.00
2023-02-13T09:21:14.177Z,216.00
2023-02-13T09:22:14.187Z,248.00
2023-02-13T09:23:14.173Z,272.00
2023-02-13T09:24:14.157Z,300.00
2023-02-13T09:25:14.152Z,336.00
2023-02-13T09:26:14.153Z,340.00
2023-02-13T09:27:14.111Z,340.00
2023-02-13T09:28:14.981Z,352.00
2023-02-13T09:29:15.110Z,348.00
2023-02-13T09:30:14.098Z,324.00
2023-02-13T09:31:15.415Z,308.00
2023-02-13T09:32:14.141Z,296.00
2023-02-13T09:33:14.075Z,292.00
2023-02-13T09:34:14.124Z,280.00
2023-02-13T09:35:15.041Z,268.00
2023-02-13T09:36:14.039Z,260.00
2023-02-13T09:37:14.061Z,252.00
2023-02-13T09:38:13.983Z,252.00
2023-02-13T09:39:13.994Z,268.00
2023-02-13T09:40:14.023Z,296.00
2023-02-13T09:41:15.863Z,328.00
2023-02-13T09:42:13.975Z,340.00
2023-02-13T09:43:13.969Z,344.00
2023-02-13T09:44:13.946Z,352.00
2023-02-13T09:45:13.990Z,364.00
2023-02-13T09:46:14.006Z,368.00
2023-02-13T09:47:14.897Z,360.00
2023-02-13T09:48:14.870Z,360.00
2023-02-13T09:49:13.910Z,356.00
2023-02-13T09:50:13.869Z,336.00
2023-02-13T09:51:14.880Z,312.00
2023-02-13T09:52:20.993Z,292.00
2023-02-13T09:53:13.837Z,268.00
2023-02-13T09:54:13.806Z,252.00
2023-02-13T09:55:13.800Z,264.00
2023-02-13T09:56:13.796Z,284.00
2023-02-13T09:57:13.829Z,300.00
2023-02-13T09:58:13.769Z,308.00
2023-02-13T09:59:13.777Z,296.00
2023-02-13T10:00:13.808Z,296.00
2023-02-13T10:01:14.774Z,308.00
2023-02-13T10:02:14.729Z,320.00
2023-02-13T10:03:13.726Z,320.00
2023-02-13T10:04:13.710Z,300.00
2023-02-13T10:05:14.834Z,272.00
2023-02-13T10:06:13.685Z,264.00
2023-02-13T10:07:13.681Z,268.00
2023-02-13T10:08:13.681Z,280.00
2023-02-13T10:09:13.641Z,304.00
2023-02-13T10:10:13.644Z,348.00
2023-02-13T10:11:13.671Z,384.00
2023-02-13T10:12:13.608Z,384.00
2023-02-13T10:13:13.602Z,368.00
2023-02-13T10:14:13.637Z,344.00
2023-02-13T10:15:13.591Z,336.00
2023-02-13T10:16:13.613Z,340.00
2023-02-13T10:17:13.581Z,336.00
2023-02-13T10:18:13.592Z,324.00
2023-02-13T10:19:13.574Z,312.00
2023-02-13T10:20:14.525Z,308.00
2023-02-13T10:21:13.537Z,304.00
2023-02-13T10:22:13.511Z,308.00
2023-02-13T10:23:13.523Z,316.00
2023-02-13T10:24:13.541Z,320.00
2023-02-13T10:25:13.483Z,324.00
2023-02-13T10:26:13.473Z,336.00
2023-02-13T10:27:13.445Z,340.00
2023-02-13T10:28:14.519Z,336.00
2023-02-13T10:29:13.466Z,332.00
2023-02-13T10:30:13.471Z,368.00
2023-02-13T10:31:14.479Z,420.00
2023-02-13T10:32:13.520Z,444.00
2023-02-13T10:33:13.406Z,456.00
2023-02-13T10:34:13.477Z,468.00
2023-02-13T10:35:13.395Z,480.00
2023-02-13T10:36:13.363Z,488.00
2023-02-13T10:37:14.346Z,504.00
2023-02-13T10:38:13.336Z,520.00
2023-02-13T10:39:13.324Z,524.00
2023-02-13T10:40:13.325Z,524.00
2023-02-13T10:41:13.318Z,520.00
2023-02-13T10:42:13.282Z,512.00
2023-02-13T10:43:13.298Z,512.00
2023-02-13T10:44:14.268Z,512.00
2023-02-13T10:45:13.249Z,508.00
2023-02-13T10:46:13.316Z,496.00
2023-02-13T10:47:13.234Z,496.00
2023-02-13T10:48:13.223Z,512.00
2023-02-13T10:49:13.250Z,528.00
2023-02-13T10:50:13.205Z,540.00
2023-02-13T10:51:13.206Z,548.00
2023-02-13T10:52:13.200Z,552.00
2023-02-13T10:53:13.207Z,560.00
2023-02-13T10:54:13.140Z,564.00
2023-02-13T10:55:13.156Z,552.00
2023-02-13T10:56:13.123Z,524.00
2023-02-13T10:57:13.136Z,504.00
2023-02-13T10:58:13.139Z,484.00
2023-02-13T10:59:13.094Z,480.00
2023-02-13T11:00:13.089Z,472.00
2023-02-13T11:01:13.132Z,460.00
2023-02-13T11:02:13.060Z,456.00
2023-02-13T11:03:13.048Z,448.00
2023-02-13T11:04:14.142Z,424.00
2023-02-13T11:05:14.038Z,404.00
2023-02-13T11:06:13.014Z,400.00
2023-02-13T11:07:13.024Z,408.00
2023-02-13T11:08:14.012Z,420.00
2023-02-13T11:09:12.999Z,432.00
2023-02-13T11:10:12.988Z,448.00
2023-02-13T11:11:13.980Z,452.00
2023-02-13T11:12:12.993Z,452.00
2023-02-13T11:13:12.963Z,452.00
2023-02-13T11:14:12.939Z,452.00
2023-02-13T11:15:12.903Z,456.00
2023-02-13T11:16:12.939Z,448.00
2023-02-13T11:17:12.897Z,440.00
2023-02-13T11:18:12.891Z,444.00
2023-02-13T11:19:12.867Z,448.00
2023-02-13T11:20:13.886Z,452.00
2023-02-13T11:21:13.845Z,468.00
2023-02-13T11:22:12.825Z,488.00
2023-02-13T11:23:12.834Z,504.00
2023-02-13T11:24:12.854Z,524.00
2023-02-13T11:25:12.814Z,544.00
2023-02-13T11:26:12.789Z,548.00
2023-02-13T11:27:13.877Z,560.00
2023-02-13T11:28:12.813Z,584.00
2023-02-13T11:29:12.753Z,600.00
2023-02-13T11:30:12.758Z,612.00
2023-02-13T11:31:13.826Z,620.00
2023-02-13T11:32:12.977Z,616.00
2023-02-13T11:33:12.753Z,604.00
2023-02-13T11:34:13.736Z,592.00
2023-02-13T11:35:12.688Z,580.00
2023-02-13T11:36:12.670Z,548.00
2023-02-13T11:37:12.686Z,528.00
2023-02-13T11:38:12.675Z,512.00
2023-02-13T11:39:12.687Z,500.00
2023-02-13T11:40:12.636Z,492.00
2023-02-13T11:41:12.669Z,476.00
2023-02-13T11:42:12.625Z,464.00
2023-02-13T11:43:12.611Z,460.00
2023-02-13T11:44:12.600Z,456.00
2023-02-13T11:45:12.622Z,456.00
2023-02-13T11:46:12.592Z,444.00
2023-02-13T11:47:13.574Z,432.00
2023-02-13T11:48:12.584Z,420.00
2023-02-13T11:49:13.526Z,412.00
2023-02-13T11:50:12.535Z,412.00
2023-02-13T11:51:12.562Z,420.00
2023-02-13T11:52:12.504Z,432.00
2023-02-13T11:53:12.500Z,444.00
2023-02-13T11:54:12.473Z,452.00
2023-02-13T11:55:12.500Z,452.00
2023-02-13T11:56:12.485Z,440.00
2023-02-13T11:57:12.479Z,432.00
2023-02-13T11:58:12.505Z,424.00
2023-02-13T11:59:13.430Z,424.00
2023-02-13T12:00:12.415Z,420.00
2023-02-13T12:01:13.412Z,408.00
2023-02-13T12:02:12.521Z,396.00
2023-02-13T12:03:12.532Z,396.00
2023-02-13T12:04:12.367Z,416.00
2023-02-13T12:05:12.413Z,436.00
2023-02-13T12:06:12.361Z,448.00
2023-02-13T12:07:12.380Z,448.00
2023-02-13T12:08:12.365Z,436.00
2023-02-13T12:09:13.333Z,432.00
2023-02-13T12:10:12.371Z,424.00
2023-02-13T12:11:12.288Z,428.00
2023-02-13T12:12:13.306Z,428.00
2023-02-13T12:13:12.364Z,416.00
2023-02-13T12:14:12.270Z,400.00
2023-02-13T12:15:12.270Z,388.00
2023-02-13T12:16:12.293Z,372.00
2023-02-13T12:17:19.065Z,356.00
2023-02-13T12:18:13.262Z,348.00
2023-02-13T12:19:12.229Z,344.00
2023-02-13T12:20:12.290Z,340.00
2023-02-13T12:21:12.193Z,340.00
2023-02-13T12:22:12.187Z,348.00
2023-02-13T12:23:12.264Z,364.00
2023-02-13T12:24:12.168Z,376.00
2023-02-13T12:25:12.158Z,380.00
2023-02-13T12:26:12.230Z,368.00
2023-02-13T12:27:12.202Z,352.00
2023-02-13T12:28:13.204Z,348.00
2023-02-13T12:29:12.188Z,344.00
2023-02-13T12:30:12.124Z,348.00
2023-02-13T12:31:12.108Z,348.00
2023-02-13T12:32:12.157Z,364.00
2023-02-13T12:33:12.055Z,384.00
2023-02-13T12:34:13.147Z,400.00
2023-02-13T12:35:12.059Z,416.00
2023-02-13T12:36:12.055Z,420.00
2023-02-13T12:37:13.070Z,408.00
2023-02-13T12:38:12.019Z,400.00
2023-02-13T12:39:11.984Z,388.00
2023-02-13T12:40:11.999Z,372.00
2023-02-13T12:41:12.006Z,364.00
2023-02-13T12:42:11.984Z,376.00
2023-02-13T12:43:11.987Z,400.00
2023-02-13T12:44:11.993Z,432.00
2023-02-13T12:45:11.996Z,456.00
2023-02-13T12:46:11.954Z,464.00
2023-02-13T12:47:11.923Z,472.00
2023-02-13T12:48:11.936Z,468.00
2023-02-13T12:49:12.885Z,464.00
2023-02-13T12:50:11.872Z,456.00
2023-02-13T12:51:11.888Z,448.00
2023-02-13T12:52:11.876Z,448.00
2023-02-13T12:53:11.849Z,432.00
2023-02-13T12:54:12.880Z,408.00